Ana Sayfa
METAR-TAF:

METAR-TAF

Havaalanları :

Sitiawan, Malezya

Enlem: 04-13N, Boylam: 100-42E, yükseklik: 7 m

Güncel hava durumu gözlemi

Rapor saat 07:00 UTC de 42 dakika önce yapıldı.
Rüzgar değişken yönden 6 kt
Sıcaklık 33°C
Nem 63%
Basınç 1007 hPa
Görüş mesafesi 10 km veya daha fazla
1700 ft yükseklikte az bulutlu, Kümülonimbus.

METAR: WMBA 280700Z VRB06KT 9999 FEW017CB 33/25 Q1007

Saat: 15:42 (07:42 UTC)


TAF: eksik

4.000'den fazla havaalanı için hava durumu gözlemleri ve tahminleri (METAR ve TAF raporları).

Kullanılabilir istasyonlar harita üzerinde sarı ve kırmızı noktalarla gösterilir.

İstasyonun adını görmek için fareyi noktanın üzerinde gezdirin.

Sonrasında hava gözlem ve tahminlerini görmek için tıklayın.

Haritayı değiştirmek için: yaklaştırmak için siyah artı işaretli yeşil düğmeye ve uzaklaştırmak için de eksi işaretli düğmeye hızla tıklayın; bitişik haritalar için yeşil okları kullanın.


METAR-TAF: